sensor_id;sensor_type;location;lat;lon;timestamp;temperature;humidity
20977;DHT22;10647;51.016;3.720;2022-10-16T00:01:55;15.70;99.90
20977;DHT22;10647;51.016;3.720;2022-10-16T00:04:23;15.60;99.90
20977;DHT22;10647;51.016;3.720;2022-10-16T00:06:51;15.60;99.90
20977;DHT22;10647;51.016;3.720;2022-10-16T00:09:18;15.60;99.90
20977;DHT22;10647;51.016;3.720;2022-10-16T00:11:46;15.50;99.90
20977;DHT22;10647;51.016;3.720;2022-10-16T00:14:15;15.50;99.90
20977;DHT22;10647;51.016;3.720;2022-10-16T00:16:43;15.40;99.90
20977;DHT22;10647;51.016;3.720;2022-10-16T00:19:11;15.40;99.90
20977;DHT22;10647;51.016;3.720;2022-10-16T00:21:39;15.30;99.90
20977;DHT22;10647;51.016;3.720;2022-10-16T00:24:08;15.30;99.90
20977;DHT22;10647;51.016;3.720;2022-10-16T00:26:38;15.30;99.90
20977;DHT22;10647;51.016;3.720;2022-10-16T00:29:06;15.30;99.90
20977;DHT22;10647;51.016;3.720;2022-10-16T00:31:34;15.30;99.90
20977;DHT22;10647;51.016;3.720;2022-10-16T00:34:02;15.30;99.90
20977;DHT22;10647;51.016;3.720;2022-10-16T00:36:30;15.30;99.90
20977;DHT22;10647;51.016;3.720;2022-10-16T00:38:59;15.20;99.90
20977;DHT22;10647;51.016;3.720;2022-10-16T00:41:27;15.20;99.90
20977;DHT22;10647;51.016;3.720;2022-10-16T00:43:57;15.20;99.90
20977;DHT22;10647;51.016;3.720;2022-10-16T00:46:40;15.20;99.90
20977;DHT22;10647;51.016;3.720;2022-10-16T00:49:15;15.20;99.90
20977;DHT22;10647;51.016;3.720;2022-10-16T00:51:49;15.20;99.90
20977;DHT22;10647;51.016;3.720;2022-10-16T00:57:07;15.20;99.90
20977;DHT22;10647;51.016;3.720;2022-10-16T00:59:37;15.20;99.90
20977;DHT22;10647;51.016;3.720;2022-10-16T01:02:07;15.20;99.90
20977;DHT22;10647;51.016;3.720;2022-10-16T01:04:40;15.20;99.90
20977;DHT22;10647;51.016;3.720;2022-10-16T01:13:11;15.30;99.90
20977;DHT22;10647;51.016;3.720;2022-10-16T01:16:37;15.20;99.90
20977;DHT22;10647;51.016;3.720;2022-10-16T01:18:30;15.10;99.90
20977;DHT22;10647;51.016;3.720;2022-10-16T01:29:42;15.00;99.90
20977;DHT22;10647;51.016;3.720;2022-10-16T01:35:14;15.00;99.90
20977;DHT22;10647;51.016;3.720;2022-10-16T01:40:27;15.00;99.90
20977;DHT22;10647;51.016;3.720;2022-10-16T01:43:04;15.00;99.90
20977;DHT22;10647;51.016;3.720;2022-10-16T01:45:33;15.00;99.90
20977;DHT22;10647;51.016;3.720;2022-10-16T01:48:03;15.00;99.90
20977;DHT22;10647;51.016;3.720;2022-10-16T01:50:35;15.10;99.90
20977;DHT22;10647;51.016;3.720;2022-10-16T01:53:05;15.00;99.90
20977;DHT22;10647;51.016;3.720;2022-10-16T01:55:36;15.00;99.90
20977;DHT22;10647;51.016;3.720;2022-10-16T01:58:07;15.10;99.90
20977;DHT22;10647;51.016;3.720;2022-10-16T02:00:37;15.10;99.90
20977;DHT22;10647;51.016;3.720;2022-10-16T02:03:06;15.10;99.90
20977;DHT22;10647;51.016;3.720;2022-10-16T02:08:29;15.10;99.90
20977;DHT22;10647;51.016;3.720;2022-10-16T02:10:59;15.10;99.90
20977;DHT22;10647;51.016;3.720;2022-10-16T02:13:45;15.10;99.90
20977;DHT22;10647;51.016;3.720;2022-10-16T02:16:14;15.00;99.90
20977;DHT22;10647;51.016;3.720;2022-10-16T02:18:42;15.00;99.90
20977;DHT22;10647;51.016;3.720;2022-10-16T02:24:07;15.00;99.90
20977;DHT22;10647;51.016;3.720;2022-10-16T02:26:42;15.10;99.90
20977;DHT22;10647;51.016;3.720;2022-10-16T02:29:12;15.00;99.90
20977;DHT22;10647;51.016;3.720;2022-10-16T02:31:42;15.00;99.90
20977;DHT22;10647;51.016;3.720;2022-10-16T02:34:11;15.00;99.90
20977;DHT22;10647;51.016;3.720;2022-10-16T02:36:41;15.00;99.90
20977;DHT22;10647;51.016;3.720;2022-10-16T02:39:10;15.00;99.90
20977;DHT22;10647;51.016;3.720;2022-10-16T02:41:38;15.00;99.90
20977;DHT22;10647;51.016;3.720;2022-10-16T02:44:06;15.00;99.90
20977;DHT22;10647;51.016;3.720;2022-10-16T02:46:33;15.10;99.90
20977;DHT22;10647;51.016;3.720;2022-10-16T02:49:01;15.00;99.90
20977;DHT22;10647;51.016;3.720;2022-10-16T02:51:28;15.00;99.90
20977;DHT22;10647;51.016;3.720;2022-10-16T02:53:56;15.00;99.90
20977;DHT22;10647;51.016;3.720;2022-10-16T02:56:23;15.00;99.90
20977;DHT22;10647;51.016;3.720;2022-10-16T02:58:51;15.00;99.90
20977;DHT22;10647;51.016;3.720;2022-10-16T03:01:20;15.00;99.90
20977;DHT22;10647;51.016;3.720;2022-10-16T03:03:48;15.00;99.90
20977;DHT22;10647;51.016;3.720;2022-10-16T03:06:15;15.00;99.90
20977;DHT22;10647;51.016;3.720;2022-10-16T03:08:43;15.00;99.90
20977;DHT22;10647;51.016;3.720;2022-10-16T03:11:10;15.00;99.90
20977;DHT22;10647;51.016;3.720;2022-10-16T03:13:38;15.00;99.90
20977;DHT22;10647;51.016;3.720;2022-10-16T03:16:05;15.00;99.90
20977;DHT22;10647;51.016;3.720;2022-10-16T03:18:33;15.00;99.90
20977;DHT22;10647;51.016;3.720;2022-10-16T03:21:00;15.00;99.90
20977;DHT22;10647;51.016;3.720;2022-10-16T03:23:28;15.00;99.90
20977;DHT22;10647;51.016;3.720;2022-10-16T03:25:55;15.00;99.90
20977;DHT22;10647;51.016;3.720;2022-10-16T03:28:23;15.00;99.90
20977;DHT22;10647;51.016;3.720;2022-10-16T03:30:50;14.90;99.90
20977;DHT22;10647;51.016;3.720;2022-10-16T03:33:18;15.00;99.90
20977;DHT22;10647;51.016;3.720;2022-10-16T03:35:53;14.90;99.90
20977;DHT22;10647;51.016;3.720;2022-10-16T03:38:41;15.00;99.90
20977;DHT22;10647;51.016;3.720;2022-10-16T03:41:08;14.90;99.90
20977;DHT22;10647;51.016;3.720;2022-10-16T03:43:36;14.90;99.90
20977;DHT22;10647;51.016;3.720;2022-10-16T03:46:03;14.90;99.90
20977;DHT22;10647;51.016;3.720;2022-10-16T03:48:31;14.80;99.90
20977;DHT22;10647;51.016;3.720;2022-10-16T03:50:59;14.80;99.90
20977;DHT22;10647;51.016;3.720;2022-10-16T03:53:26;14.80;99.90
20977;DHT22;10647;51.016;3.720;2022-10-16T03:55:54;14.80;99.90
20977;DHT22;10647;51.016;3.720;2022-10-16T03:58:21;14.80;99.90
20977;DHT22;10647;51.016;3.720;2022-10-16T04:00:49;14.80;99.90
20977;DHT22;10647;51.016;3.720;2022-10-16T04:03:16;14.70;99.90
20977;DHT22;10647;51.016;3.720;2022-10-16T04:05:45;14.70;99.90
20977;DHT22;10647;51.016;3.720;2022-10-16T04:08:13;14.70;99.90
20977;DHT22;10647;51.016;3.720;2022-10-16T04:10:42;14.70;99.90
20977;DHT22;10647;51.016;3.720;2022-10-16T04:13:10;14.70;99.90
20977;DHT22;10647;51.016;3.720;2022-10-16T04:15:38;14.60;99.90
20977;DHT22;10647;51.016;3.720;2022-10-16T04:18:06;14.60;99.90
20977;DHT22;10647;51.016;3.720;2022-10-16T04:20:34;14.60;99.90
20977;DHT22;10647;51.016;3.720;2022-10-16T04:23:02;14.60;99.90
20977;DHT22;10647;51.016;3.720;2022-10-16T04:25:30;14.60;99.90
20977;DHT22;10647;51.016;3.720;2022-10-16T04:27:58;14.60;99.90
20977;DHT22;10647;51.016;3.720;2022-10-16T04:30:26;14.60;99.90
20977;DHT22;10647;51.016;3.720;2022-10-16T04:32:53;14.60;99.90
20977;DHT22;10647;51.016;3.720;2022-10-16T04:35:21;14.60;99.90
20977;DHT22;10647;51.016;3.720;2022-10-16T04:37:49;14.60;99.90
20977;DHT22;10647;51.016;3.720;2022-10-16T04:40:17;14.50;99.90
20977;DHT22;10647;51.016;3.720;2022-10-16T04:42:45;14.60;99.90
20977;DHT22;10647;51.016;3.720;2022-10-16T04:45:12;14.60;99.90
20977;DHT22;10647;51.016;3.720;2022-10-16T04:47:40;14.50;99.90
20977;DHT22;10647;51.016;3.720;2022-10-16T04:50:08;14.60;99.90
20977;DHT22;10647;51.016;3.720;2022-10-16T04:52:55;14.60;99.90
20977;DHT22;10647;51.016;3.720;2022-10-16T04:55:22;14.60;99.90
20977;DHT22;10647;51.016;3.720;2022-10-16T04:57:50;14.50;99.90
20977;DHT22;10647;51.016;3.720;2022-10-16T05:00:17;14.50;99.90
20977;DHT22;10647;51.016;3.720;2022-10-16T05:02:45;14.60;99.90
20977;DHT22;10647;51.016;3.720;2022-10-16T05:05:12;14.50;99.90
20977;DHT22;10647;51.016;3.720;2022-10-16T05:07:40;14.50;99.90
20977;DHT22;10647;51.016;3.720;2022-10-16T05:10:08;14.50;99.90
20977;DHT22;10647;51.016;3.720;2022-10-16T05:12:35;14.60;99.90
20977;DHT22;10647;51.016;3.720;2022-10-16T05:15:03;14.60;99.90
20977;DHT22;10647;51.016;3.720;2022-10-16T05:17:31;14.80;99.90
20977;DHT22;10647;51.016;3.720;2022-10-16T05:19:58;14.80;99.90
20977;DHT22;10647;51.016;3.720;2022-10-16T05:22:26;14.90;99.90
20977;DHT22;10647;51.016;3.720;2022-10-16T05:24:53;15.00;99.90
20977;DHT22;10647;51.016;3.720;2022-10-16T05:27:21;15.00;99.90
20977;DHT22;10647;51.016;3.720;2022-10-16T05:29:49;15.10;99.90
20977;DHT22;10647;51.016;3.720;2022-10-16T05:32:17;15.10;99.90
20977;DHT22;10647;51.016;3.720;2022-10-16T05:34:45;15.10;99.90
20977;DHT22;10647;51.016;3.720;2022-10-16T05:37:13;15.10;99.90
20977;DHT22;10647;51.016;3.720;2022-10-16T05:39:40;15.20;99.90
20977;DHT22;10647;51.016;3.720;2022-10-16T05:42:08;15.20;99.90
20977;DHT22;10647;51.016;3.720;2022-10-16T05:44:35;15.30;99.90
20977;DHT22;10647;51.016;3.720;2022-10-16T05:47:03;15.30;99.90
20977;DHT22;10647;51.016;3.720;2022-10-16T05:49:30;15.20;99.90
20977;DHT22;10647;51.016;3.720;2022-10-16T05:51:58;15.10;99.90
20977;DHT22;10647;51.016;3.720;2022-10-16T05:54:25;15.00;99.90
20977;DHT22;10647;51.016;3.720;2022-10-16T05:56:53;15.00;99.90
20977;DHT22;10647;51.016;3.720;2022-10-16T05:59:21;14.90;99.90
20977;DHT22;10647;51.016;3.720;2022-10-16T06:01:49;14.80;99.90
20977;DHT22;10647;51.016;3.720;2022-10-16T06:04:16;14.80;99.90
20977;DHT22;10647;51.016;3.720;2022-10-16T06:06:44;14.80;99.90
20977;DHT22;10647;51.016;3.720;2022-10-16T06:09:11;14.80;99.90
20977;DHT22;10647;51.016;3.720;2022-10-16T06:11:39;14.70;99.90
20977;DHT22;10647;51.016;3.720;2022-10-16T06:14:08;14.70;99.90
20977;DHT22;10647;51.016;3.720;2022-10-16T06:16:36;14.70;99.90
20977;DHT22;10647;51.016;3.720;2022-10-16T06:19:04;14.60;99.90
20977;DHT22;10647;51.016;3.720;2022-10-16T06:21:36;14.60;99.90
20977;DHT22;10647;51.016;3.720;2022-10-16T06:24:04;14.60;99.90
20977;DHT22;10647;51.016;3.720;2022-10-16T06:26:32;14.70;99.90
20977;DHT22;10647;51.016;3.720;2022-10-16T06:28:59;14.60;99.90
20977;DHT22;10647;51.016;3.720;2022-10-16T06:31:28;14.70;99.90
20977;DHT22;10647;51.016;3.720;2022-10-16T06:33:57;14.70;99.90
20977;DHT22;10647;51.016;3.720;2022-10-16T06:36:26;14.80;99.90
20977;DHT22;10647;51.016;3.720;2022-10-16T06:38:54;14.70;99.90
20977;DHT22;10647;51.016;3.720;2022-10-16T06:44:10;14.80;99.90
20977;DHT22;10647;51.016;3.720;2022-10-16T06:46:38;14.80;99.90
20977;DHT22;10647;51.016;3.720;2022-10-16T06:49:05;14.80;99.90
20977;DHT22;10647;51.016;3.720;2022-10-16T06:51:33;14.90;99.90
20977;DHT22;10647;51.016;3.720;2022-10-16T06:54:02;14.90;99.90
20977;DHT22;10647;51.016;3.720;2022-10-16T06:56:32;14.90;99.90
20977;DHT22;10647;51.016;3.720;2022-10-16T06:59:00;15.00;99.90
20977;DHT22;10647;51.016;3.720;2022-10-16T07:01:28;15.00;99.90
20977;DHT22;10647;51.016;3.720;2022-10-16T07:03:56;15.00;99.90
20977;DHT22;10647;51.016;3.720;2022-10-16T07:06:25;15.10;99.90
20977;DHT22;10647;51.016;3.720;2022-10-16T07:08:53;15.10;99.90
20977;DHT22;10647;51.016;3.720;2022-10-16T07:11:22;15.10;99.90
20977;DHT22;10647;51.016;3.720;2022-10-16T07:13:51;15.20;99.90
20977;DHT22;10647;51.016;3.720;2022-10-16T07:16:21;15.20;99.90
20977;DHT22;10647;51.016;3.720;2022-10-16T07:18:58;15.30;99.90
20977;DHT22;10647;51.016;3.720;2022-10-16T07:21:24;15.30;99.90
20977;DHT22;10647;51.016;3.720;2022-10-16T07:23:55;15.30;99.90
20977;DHT22;10647;51.016;3.720;2022-10-16T07:26:25;15.40;99.90
20977;DHT22;10647;51.016;3.720;2022-10-16T07:28:56;15.30;99.90
20977;DHT22;10647;51.016;3.720;2022-10-16T07:34:17;15.30;99.90
20977;DHT22;10647;51.016;3.720;2022-10-16T07:36:47;15.30;99.90
20977;DHT22;10647;51.016;3.720;2022-10-16T07:39:21;15.40;99.90
20977;DHT22;10647;51.016;3.720;2022-10-16T07:41:51;15.50;99.90
20977;DHT22;10647;51.016;3.720;2022-10-16T07:44:18;15.50;99.90
20977;DHT22;10647;51.016;3.720;2022-10-16T07:46:46;15.60;99.90
20977;DHT22;10647;51.016;3.720;2022-10-16T07:49:15;15.70;99.90
20977;DHT22;10647;51.016;3.720;2022-10-16T07:51:42;15.80;99.90
20977;DHT22;10647;51.016;3.720;2022-10-16T07:54:10;15.90;99.90
20977;DHT22;10647;51.016;3.720;2022-10-16T07:56:37;15.90;99.90
20977;DHT22;10647;51.016;3.720;2022-10-16T07:59:05;15.90;99.90
20977;DHT22;10647;51.016;3.720;2022-10-16T08:01:32;16.00;99.90
20977;DHT22;10647;51.016;3.720;2022-10-16T08:04:02;16.00;99.90
20977;DHT22;10647;51.016;3.720;2022-10-16T08:06:34;16.20;99.90
20977;DHT22;10647;51.016;3.720;2022-10-16T08:09:00;16.20;99.90
20977;DHT22;10647;51.016;3.720;2022-10-16T08:11:27;16.30;99.90
20977;DHT22;10647;51.016;3.720;2022-10-16T08:13:55;16.30;99.90
20977;DHT22;10647;51.016;3.720;2022-10-16T08:16:24;16.40;99.90
20977;DHT22;10647;51.016;3.720;2022-10-16T08:18:52;16.60;99.90
20977;DHT22;10647;51.016;3.720;2022-10-16T08:21:21;16.70;99.90
20977;DHT22;10647;51.016;3.720;2022-10-16T08:23:53;16.80;99.90
20977;DHT22;10647;51.016;3.720;2022-10-16T08:26:27;17.00;99.90
20977;DHT22;10647;51.016;3.720;2022-10-16T08:28:56;17.00;99.90
20977;DHT22;10647;51.016;3.720;2022-10-16T08:31:24;17.20;99.90
20977;DHT22;10647;51.016;3.720;2022-10-16T08:33:53;17.30;99.90
20977;DHT22;10647;51.016;3.720;2022-10-16T08:36:21;17.30;99.90
20977;DHT22;10647;51.016;3.720;2022-10-16T08:38:49;17.40;99.90
20977;DHT22;10647;51.016;3.720;2022-10-16T08:41:29;17.40;99.90
20977;DHT22;10647;51.016;3.720;2022-10-16T08:44:30;17.50;99.90
20977;DHT22;10647;51.016;3.720;2022-10-16T08:47:21;17.50;99.90
20977;DHT22;10647;51.016;3.720;2022-10-16T08:50:00;17.50;99.90
20977;DHT22;10647;51.016;3.720;2022-10-16T08:58:01;17.80;99.90
20977;DHT22;10647;51.016;3.720;2022-10-16T09:00:30;17.90;99.90
20977;DHT22;10647;51.016;3.720;2022-10-16T09:03:22;17.90;99.90
20977;DHT22;10647;51.016;3.720;2022-10-16T09:08:45;18.00;99.90
20977;DHT22;10647;51.016;3.720;2022-10-16T09:17:03;18.00;99.90
20977;DHT22;10647;51.016;3.720;2022-10-16T09:19:31;18.20;99.90
20977;DHT22;10647;51.016;3.720;2022-10-16T09:22:01;18.20;99.90
20977;DHT22;10647;51.016;3.720;2022-10-16T09:24:35;18.30;99.90
20977;DHT22;10647;51.016;3.720;2022-10-16T09:27:03;18.40;99.90
20977;DHT22;10647;51.016;3.720;2022-10-16T09:29:31;18.50;99.90
20977;DHT22;10647;51.016;3.720;2022-10-16T09:32:15;18.50;99.90
20977;DHT22;10647;51.016;3.720;2022-10-16T09:34:42;18.60;99.90
20977;DHT22;10647;51.016;3.720;2022-10-16T09:37:13;18.60;99.90
20977;DHT22;10647;51.016;3.720;2022-10-16T09:40:01;18.60;99.90
20977;DHT22;10647;51.016;3.720;2022-10-16T09:42:31;18.80;99.90
20977;DHT22;10647;51.016;3.720;2022-10-16T09:44:59;18.90;99.90
20977;DHT22;10647;51.016;3.720;2022-10-16T09:47:29;19.00;99.90
20977;DHT22;10647;51.016;3.720;2022-10-16T09:49:59;19.00;99.90
20977;DHT22;10647;51.016;3.720;2022-10-16T09:52:29;19.10;99.90
20977;DHT22;10647;51.016;3.720;2022-10-16T09:55:02;19.20;99.90
20977;DHT22;10647;51.016;3.720;2022-10-16T09:57:30;19.20;99.90
20977;DHT22;10647;51.016;3.720;2022-10-16T09:59:58;19.20;99.90
20977;DHT22;10647;51.016;3.720;2022-10-16T10:02:31;19.20;99.90
20977;DHT22;10647;51.016;3.720;2022-10-16T10:05:00;19.30;99.90
20977;DHT22;10647;51.016;3.720;2022-10-16T10:07:32;19.40;99.90
20977;DHT22;10647;51.016;3.720;2022-10-16T10:10:02;19.70;99.90
20977;DHT22;10647;51.016;3.720;2022-10-16T10:12:31;19.70;99.90
20977;DHT22;10647;51.016;3.720;2022-10-16T10:15:12;19.70;99.90
20977;DHT22;10647;51.016;3.720;2022-10-16T10:17:52;19.80;99.90
20977;DHT22;10647;51.016;3.720;2022-10-16T10:20:28;19.80;99.90
20977;DHT22;10647;51.016;3.720;2022-10-16T10:22:58;20.00;99.90
20977;DHT22;10647;51.016;3.720;2022-10-16T10:28:10;20.20;99.90
20977;DHT22;10647;51.016;3.720;2022-10-16T10:31:01;20.20;99.90
20977;DHT22;10647;51.016;3.720;2022-10-16T10:33:50;20.40;99.90
20977;DHT22;10647;51.016;3.720;2022-10-16T10:36:29;20.70;99.90
20977;DHT22;10647;51.016;3.720;2022-10-16T10:50:07;21.20;99.90
20977;DHT22;10647;51.016;3.720;2022-10-16T10:52:41;21.50;99.90
20977;DHT22;10647;51.016;3.720;2022-10-16T10:58:10;21.70;99.90
20977;DHT22;10647;51.016;3.720;2022-10-16T11:08:45;22.20;99.90
20977;DHT22;10647;51.016;3.720;2022-10-16T11:11:24;22.40;99.90
20977;DHT22;10647;51.016;3.720;2022-10-16T11:16:40;22.80;99.90
20977;DHT22;10647;51.016;3.720;2022-10-16T11:19:27;23.10;99.90
20977;DHT22;10647;51.016;3.720;2022-10-16T11:25:00;23.40;99.90
20977;DHT22;10647;51.016;3.720;2022-10-16T11:27:36;23.20;99.90
20977;DHT22;10647;51.016;3.720;2022-10-16T11:30:12;23.00;99.90
20977;DHT22;10647;51.016;3.720;2022-10-16T11:32:49;22.80;99.90
20977;DHT22;10647;51.016;3.720;2022-10-16T11:35:20;22.70;99.90
20977;DHT22;10647;51.016;3.720;2022-10-16T11:38:14;22.40;99.90
20977;DHT22;10647;51.016;3.720;2022-10-16T11:40:38;22.30;99.90
20977;DHT22;10647;51.016;3.720;2022-10-16T11:43:16;22.30;99.90
20977;DHT22;10647;51.016;3.720;2022-10-16T11:45:46;22.30;99.90
20977;DHT22;10647;51.016;3.720;2022-10-16T11:49:06;22.40;99.90
20977;DHT22;10647;51.016;3.720;2022-10-16T11:54:04;22.20;99.90
20977;DHT22;10647;51.016;3.720;2022-10-16T11:56:35;22.00;99.90
20977;DHT22;10647;51.016;3.720;2022-10-16T12:01:48;22.00;99.90
20977;DHT22;10647;51.016;3.720;2022-10-16T12:04:39;22.00;99.90
20977;DHT22;10647;51.016;3.720;2022-10-16T12:07:09;22.20;99.90
20977;DHT22;10647;51.016;3.720;2022-10-16T12:09:48;22.20;99.90
20977;DHT22;10647;51.016;3.720;2022-10-16T12:12:38;22.30;99.90
20977;DHT22;10647;51.016;3.720;2022-10-16T12:17:47;22.30;99.90
20977;DHT22;10647;51.016;3.720;2022-10-16T12:22:52;22.20;99.90
20977;DHT22;10647;51.016;3.720;2022-10-16T12:25:33;22.20;99.90
20977;DHT22;10647;51.016;3.720;2022-10-16T12:30:51;22.20;99.90
20977;DHT22;10647;51.016;3.720;2022-10-16T12:33:29;22.40;99.90
20977;DHT22;10647;51.016;3.720;2022-10-16T12:35:59;22.50;99.90
20977;DHT22;10647;51.016;3.720;2022-10-16T12:41:08;22.80;99.90
20977;DHT22;10647;51.016;3.720;2022-10-16T12:43:47;23.40;99.90
20977;DHT22;10647;51.016;3.720;2022-10-16T12:48:44;28.00;99.90
20977;DHT22;10647;51.016;3.720;2022-10-16T12:51:25;27.80;99.90
20977;DHT22;10647;51.016;3.720;2022-10-16T12:56:43;26.40;99.90
20977;DHT22;10647;51.016;3.720;2022-10-16T13:10:34;26.40;99.90
20977;DHT22;10647;51.016;3.720;2022-10-16T13:15:53;25.00;99.90
20977;DHT22;10647;51.016;3.720;2022-10-16T13:26:34;25.10;99.90
20977;DHT22;10647;51.016;3.720;2022-10-16T13:29:01;25.20;99.90
20977;DHT22;10647;51.016;3.720;2022-10-16T13:31:30;25.10;99.90
20977;DHT22;10647;51.016;3.720;2022-10-16T13:34:00;25.30;99.90
20977;DHT22;10647;51.016;3.720;2022-10-16T13:36:46;26.10;99.90
20977;DHT22;10647;51.016;3.720;2022-10-16T13:39:15;28.70;99.90
20977;DHT22;10647;51.016;3.720;2022-10-16T13:41:46;31.00;98.60
20977;DHT22;10647;51.016;3.720;2022-10-16T13:44:21;31.70;96.60
20977;DHT22;10647;51.016;3.720;2022-10-16T13:46:46;30.50;95.90
20977;DHT22;10647;51.016;3.720;2022-10-16T13:49:19;29.50;95.60
20977;DHT22;10647;51.016;3.720;2022-10-16T13:51:57;28.60;95.70
20977;DHT22;10647;51.016;3.720;2022-10-16T13:54:28;27.80;96.00
20977;DHT22;10647;51.016;3.720;2022-10-16T13:56:56;27.00;96.60
20977;DHT22;10647;51.016;3.720;2022-10-16T13:59:33;26.60;97.40
20977;DHT22;10647;51.016;3.720;2022-10-16T14:01:57;26.30;97.70
20977;DHT22;10647;51.016;3.720;2022-10-16T14:04:27;26.30;98.00
20977;DHT22;10647;51.016;3.720;2022-10-16T14:06:56;26.60;98.20
20977;DHT22;10647;51.016;3.720;2022-10-16T14:09:26;26.70;98.50
20977;DHT22;10647;51.016;3.720;2022-10-16T14:12:00;26.80;98.50
20977;DHT22;10647;51.016;3.720;2022-10-16T14:14:33;27.10;98.40
20977;DHT22;10647;51.016;3.720;2022-10-16T14:16:59;27.30;97.90
20977;DHT22;10647;51.016;3.720;2022-10-16T14:19:28;27.10;97.30
20977;DHT22;10647;51.016;3.720;2022-10-16T14:21:57;26.70;97.30
20977;DHT22;10647;51.016;3.720;2022-10-16T14:24:35;26.20;97.70
20977;DHT22;10647;51.016;3.720;2022-10-16T14:27:20;25.90;98.20
20977;DHT22;10647;51.016;3.720;2022-10-16T14:29:33;25.60;98.70
20977;DHT22;10647;51.016;3.720;2022-10-16T14:32:04;25.30;99.10
20977;DHT22;10647;51.016;3.720;2022-10-16T14:34:33;25.00;99.30
20977;DHT22;10647;51.016;3.720;2022-10-16T14:37:09;24.70;99.30
20977;DHT22;10647;51.016;3.720;2022-10-16T14:39:40;24.40;99.00
20977;DHT22;10647;51.016;3.720;2022-10-16T14:42:19;24.20;98.90
20977;DHT22;10647;51.016;3.720;2022-10-16T14:44:49;23.70;98.70
20977;DHT22;10647;51.016;3.720;2022-10-16T14:47:21;23.80;98.80
20977;DHT22;10647;51.016;3.720;2022-10-16T14:49:52;23.60;99.10
20977;DHT22;10647;51.016;3.720;2022-10-16T14:52:21;23.40;99.10
20977;DHT22;10647;51.016;3.720;2022-10-16T14:54:49;23.30;99.40
20977;DHT22;10647;51.016;3.720;2022-10-16T14:57:22;23.20;99.70
20977;DHT22;10647;51.016;3.720;2022-10-16T14:59:49;23.10;99.80
20977;DHT22;10647;51.016;3.720;2022-10-16T15:02:32;23.00;99.90
20977;DHT22;10647;51.016;3.720;2022-10-16T15:05:19;23.00;99.90
20977;DHT22;10647;51.016;3.720;2022-10-16T15:07:49;22.90;99.90
20977;DHT22;10647;51.016;3.720;2022-10-16T15:10:21;22.70;99.90
20977;DHT22;10647;51.016;3.720;2022-10-16T15:12:49;22.60;99.90
20977;DHT22;10647;51.016;3.720;2022-10-16T15:15:26;22.60;99.90
20977;DHT22;10647;51.016;3.720;2022-10-16T15:17:54;22.60;99.90
20977;DHT22;10647;51.016;3.720;2022-10-16T15:20:24;22.40;99.90
20977;DHT22;10647;51.016;3.720;2022-10-16T15:22:52;22.30;99.90
20977;DHT22;10647;51.016;3.720;2022-10-16T15:28:01;22.20;99.90
20977;DHT22;10647;51.016;3.720;2022-10-16T15:30:28;22.20;99.90
20977;DHT22;10647;51.016;3.720;2022-10-16T15:32:56;22.10;99.90
20977;DHT22;10647;51.016;3.720;2022-10-16T15:35:24;22.00;99.90
20977;DHT22;10647;51.016;3.720;2022-10-16T15:38:11;21.90;99.90
20977;DHT22;10647;51.016;3.720;2022-10-16T15:40:41;21.90;99.90
20977;DHT22;10647;51.016;3.720;2022-10-16T15:43:10;21.80;99.90
20977;DHT22;10647;51.016;3.720;2022-10-16T15:45:38;21.80;99.90
20977;DHT22;10647;51.016;3.720;2022-10-16T15:48:06;21.70;99.90
20977;DHT22;10647;51.016;3.720;2022-10-16T15:50:33;21.60;99.90
20977;DHT22;10647;51.016;3.720;2022-10-16T15:53:01;21.60;99.90
20977;DHT22;10647;51.016;3.720;2022-10-16T15:55:28;21.50;99.90
20977;DHT22;10647;51.016;3.720;2022-10-16T15:57:56;21.40;99.90
20977;DHT22;10647;51.016;3.720;2022-10-16T16:00:24;21.40;99.90
20977;DHT22;10647;51.016;3.720;2022-10-16T16:02:53;21.30;99.90
20977;DHT22;10647;51.016;3.720;2022-10-16T16:05:22;21.30;99.90
20977;DHT22;10647;51.016;3.720;2022-10-16T16:07:50;21.30;99.90
20977;DHT22;10647;51.016;3.720;2022-10-16T16:10:17;21.20;99.90
20977;DHT22;10647;51.016;3.720;2022-10-16T16:12:48;21.20;99.90
20977;DHT22;10647;51.016;3.720;2022-10-16T16:15:20;21.10;99.90
20977;DHT22;10647;51.016;3.720;2022-10-16T16:17:49;21.10;99.90
20977;DHT22;10647;51.016;3.720;2022-10-16T16:20:17;21.10;99.90
20977;DHT22;10647;51.016;3.720;2022-10-16T16:22:47;21.00;99.90
20977;DHT22;10647;51.016;3.720;2022-10-16T16:25:15;21.00;99.90
20977;DHT22;10647;51.016;3.720;2022-10-16T16:27:42;21.00;99.90
20977;DHT22;10647;51.016;3.720;2022-10-16T16:30:11;20.90;99.90
20977;DHT22;10647;51.016;3.720;2022-10-16T16:32:39;20.90;99.90
20977;DHT22;10647;51.016;3.720;2022-10-16T16:35:06;20.80;99.90
20977;DHT22;10647;51.016;3.720;2022-10-16T16:37:34;20.80;99.90
20977;DHT22;10647;51.016;3.720;2022-10-16T16:40:02;20.70;99.90
20977;DHT22;10647;51.016;3.720;2022-10-16T16:42:29;20.70;99.90
20977;DHT22;10647;51.016;3.720;2022-10-16T16:44:57;20.70;99.90
20977;DHT22;10647;51.016;3.720;2022-10-16T16:47:24;20.70;99.90
20977;DHT22;10647;51.016;3.720;2022-10-16T16:49:52;20.60;99.90
20977;DHT22;10647;51.016;3.720;2022-10-16T16:52:20;20.60;99.90
20977;DHT22;10647;51.016;3.720;2022-10-16T16:54:48;20.60;99.90
20977;DHT22;10647;51.016;3.720;2022-10-16T16:57:19;20.60;99.90
20977;DHT22;10647;51.016;3.720;2022-10-16T16:59:47;20.60;99.90
20977;DHT22;10647;51.016;3.720;2022-10-16T17:02:16;20.60;99.90
20977;DHT22;10647;51.016;3.720;2022-10-16T17:04:43;20.60;99.90
20977;DHT22;10647;51.016;3.720;2022-10-16T17:07:11;20.60;99.90
20977;DHT22;10647;51.016;3.720;2022-10-16T17:09:38;20.60;99.90
20977;DHT22;10647;51.016;3.720;2022-10-16T17:12:06;20.50;99.90
20977;DHT22;10647;51.016;3.720;2022-10-16T17:14:34;20.50;99.90
20977;DHT22;10647;51.016;3.720;2022-10-16T17:17:02;20.50;99.90
20977;DHT22;10647;51.016;3.720;2022-10-16T17:19:31;20.50;99.90
20977;DHT22;10647;51.016;3.720;2022-10-16T17:21:59;20.40;99.90
20977;DHT22;10647;51.016;3.720;2022-10-16T17:24:26;20.40;99.90
20977;DHT22;10647;51.016;3.720;2022-10-16T17:26:54;20.30;99.90
20977;DHT22;10647;51.016;3.720;2022-10-16T17:29:22;20.30;99.90
20977;DHT22;10647;51.016;3.720;2022-10-16T17:31:49;20.30;99.90
20977;DHT22;10647;51.016;3.720;2022-10-16T17:34:20;20.30;99.90
20977;DHT22;10647;51.016;3.720;2022-10-16T17:36:47;20.20;99.90
20977;DHT22;10647;51.016;3.720;2022-10-16T17:39:16;20.20;99.90
20977;DHT22;10647;51.016;3.720;2022-10-16T17:41:44;20.20;99.90
20977;DHT22;10647;51.016;3.720;2022-10-16T17:44:12;20.10;99.90
20977;DHT22;10647;51.016;3.720;2022-10-16T17:46:41;20.10;99.90
20977;DHT22;10647;51.016;3.720;2022-10-16T17:49:09;20.00;99.90
20977;DHT22;10647;51.016;3.720;2022-10-16T17:51:37;20.10;99.90
20977;DHT22;10647;51.016;3.720;2022-10-16T17:54:05;20.10;99.90
20977;DHT22;10647;51.016;3.720;2022-10-16T17:56:33;20.10;99.90